createdAt,value
2018-01-28T01:39:12.113Z,46.64
2018-01-28T01:39:12.677Z,46.64
2018-01-28T01:39:13.277Z,46.64
2018-01-28T01:39:13.876Z,46.35
2018-01-28T01:39:14.476Z,46.35
2018-01-28T01:39:15.076Z,46.35
2018-01-28T01:39:15.677Z,46.35
2018-01-28T01:40:09.118Z,46.54
2018-01-28T01:40:09.714Z,46.54
2018-01-28T01:40:10.314Z,46.45
2018-01-28T01:40:10.915Z,46.54
2018-01-28T01:40:11.514Z,46.54
2018-01-28T01:40:12.114Z,46.64
2018-01-28T01:40:12.716Z,46.54
2018-01-28T01:40:13.315Z,46.54
2018-01-28T01:41:07.793Z,46.45
2018-01-28T01:41:08.404Z,46.35
2018-01-28T01:41:08.990Z,46.54
2018-01-28T01:41:09.589Z,46.25
2018-01-28T01:41:10.188Z,46.25
2018-01-28T01:41:10.789Z,46.54
2018-01-28T01:41:11.394Z,46.25
2018-01-28T01:41:11.986Z,46.25
2018-01-28T01:42:05.446Z,47.02
2018-01-28T01:42:06.045Z,46.92
2018-01-28T01:42:06.643Z,46.83
2018-01-28T01:42:07.243Z,46.73
2018-01-28T01:42:07.843Z,46.83
2018-01-28T01:42:08.442Z,46.73
2018-01-28T01:42:09.043Z,46.92
2018-01-28T01:42:09.646Z,46.92
2018-01-28T01:43:04.125Z,46.92
2018-01-28T01:43:04.718Z,47.11
2018-01-28T01:43:05.320Z,47.02
2018-01-28T01:43:05.918Z,46.92
2018-01-28T01:43:06.517Z,46.92
2018-01-28T01:43:07.118Z,46.92
2018-01-28T01:43:07.718Z,46.83
2018-01-28T01:43:08.318Z,46.83
2018-01-28T01:44:02.288Z,46.92
2018-01-28T01:44:02.883Z,46.83
2018-01-28T01:44:03.483Z,46.73
2018-01-28T01:44:04.103Z,46.83
2018-01-28T01:44:04.682Z,46.83
2018-01-28T01:44:05.282Z,46.92
2018-01-28T01:44:05.881Z,46.73
2018-01-28T01:45:00.380Z,47.30
2018-01-28T01:45:00.945Z,47.30
2018-01-28T01:45:01.544Z,47.30
2018-01-28T01:45:02.147Z,47.39
2018-01-28T01:45:02.745Z,47.30
2018-01-28T01:45:03.344Z,47.39
2018-01-28T01:45:03.944Z,47.49
2018-01-28T01:45:04.549Z,47.39
2018-01-28T01:45:59.026Z,47.77
2018-01-28T01:45:59.621Z,47.87
2018-01-28T01:46:00.221Z,47.97
2018-01-28T01:46:00.820Z,47.77
2018-01-28T01:46:01.421Z,47.97
2018-01-28T01:46:02.020Z,48.06
2018-01-28T01:46:02.619Z,48.16
2018-01-28T01:46:03.220Z,48.06
2018-01-28T01:46:56.678Z,48.44
2018-01-28T01:46:57.273Z,48.54
2018-01-28T01:46:57.872Z,48.54
2018-01-28T01:46:58.473Z,47.97
2018-01-28T01:46:59.081Z,48.25
2018-01-28T01:46:59.672Z,48.25
2018-01-28T01:47:00.272Z,48.35
2018-01-28T01:47:00.872Z,48.54
2018-01-28T01:47:54.331Z,48.63
2018-01-28T01:47:54.926Z,48.35
2018-01-28T01:47:55.526Z,48.35
2018-01-28T01:47:56.124Z,48.72
2018-01-28T01:47:56.726Z,48.35
2018-01-28T01:47:57.326Z,48.82
2018-01-28T01:47:57.926Z,48.72
2018-01-28T01:47:58.525Z,48.82
2018-01-28T01:48:51.982Z,48.72
2018-01-28T01:48:52.577Z,48.54
2018-01-28T01:48:53.176Z,48.82
2018-01-28T01:48:53.777Z,48.82
2018-01-28T01:48:54.377Z,48.72
2018-01-28T01:48:54.977Z,48.72
2018-01-28T01:48:55.577Z,48.72
2018-01-28T01:48:56.176Z,48.72
2018-01-28T01:49:49.633Z,49.29
2018-01-28T01:49:50.230Z,49.20
2018-01-28T01:49:50.830Z,49.49
2018-01-28T01:49:51.429Z,49.39
2018-01-28T01:49:52.030Z,49.49
2018-01-28T01:49:52.629Z,49.39
2018-01-28T01:49:53.228Z,49.29
2018-01-28T01:49:53.845Z,49.49
2018-01-28T01:50:47.317Z,49.68
2018-01-28T01:50:47.881Z,49.58
2018-01-28T01:50:48.480Z,49.68
2018-01-28T01:50:49.081Z,49.68
2018-01-28T01:50:49.680Z,49.58
2018-01-28T01:50:50.281Z,49.58
2018-01-28T01:50:50.880Z,49.58
2018-01-28T01:50:51.481Z,49.58
2018-01-28T01:51:45.959Z,49.96
2018-01-28T01:51:46.556Z,50.05
2018-01-28T01:51:47.156Z,49.96
2018-01-28T01:51:47.756Z,50.05
2018-01-28T01:51:48.364Z,50.05
2018-01-28T01:51:48.973Z,49.96
2018-01-28T01:51:49.556Z,50.05
2018-01-28T01:51:50.155Z,49.87
2018-01-28T01:52:44.636Z,50.15
2018-01-28T01:52:45.233Z,50.15
2018-01-28T01:52:45.830Z,50.15
2018-01-28T01:52:46.431Z,50.15
2018-01-28T01:52:47.032Z,50.15
2018-01-28T01:52:47.630Z,50.15
2018-01-28T01:52:48.231Z,50.15
2018-01-28T01:52:48.831Z,50.15
2018-01-28T01:53:43.310Z,50.62
2018-01-28T01:53:43.907Z,50.81
2018-01-28T01:53:44.507Z,50.62
2018-01-28T01:53:45.107Z,50.72
2018-01-28T01:53:45.706Z,50.62
2018-01-28T01:53:46.307Z,50.62
2018-01-28T01:53:46.906Z,50.72
2018-01-28T01:53:47.506Z,50.62
2018-01-28T01:54:40.963Z,51.39
2018-01-28T01:54:41.560Z,51.48
2018-01-28T01:54:42.159Z,51.39
2018-01-28T01:54:42.759Z,51.57
2018-01-28T01:54:43.359Z,51.39
2018-01-28T01:54:43.974Z,51.20
2018-01-28T01:54:44.560Z,51.29
2018-01-28T01:54:45.159Z,51.39
2018-01-28T01:55:39.638Z,51.57
2018-01-28T01:55:40.235Z,51.57
2018-01-28T01:55:40.835Z,51.39
2018-01-28T01:55:41.436Z,51.48
2018-01-28T01:55:42.035Z,51.39
2018-01-28T01:55:42.635Z,51.39
2018-01-28T01:55:43.235Z,51.39
2018-01-28T01:55:43.834Z,51.57
2018-01-28T01:56:37.317Z,52.24
2018-01-28T01:56:37.887Z,52.62
2018-01-28T01:56:38.491Z,52.33
2018-01-28T01:56:39.086Z,52.33
2018-01-28T01:56:39.686Z,52.33
2018-01-28T01:56:40.290Z,52.33
2018-01-28T01:56:40.887Z,52.33
2018-01-28T01:56:41.486Z,52.53
2018-01-28T01:57:34.944Z,52.72
2018-01-28T01:57:35.539Z,52.72
2018-01-28T01:57:36.139Z,52.81
2018-01-28T01:57:36.738Z,53.19
2018-01-28T01:57:37.339Z,53.19
2018-01-28T01:57:37.939Z,52.81
2018-01-28T01:57:38.538Z,53.19
2018-01-28T01:57:39.138Z,52.91
2018-01-28T01:58:32.595Z,54.24
2018-01-28T01:58:33.196Z,54.14
2018-01-28T01:58:33.790Z,54.14
2018-01-28T01:58:34.391Z,54.24
2018-01-28T01:58:34.990Z,54.24
2018-01-28T01:58:35.590Z,54.24
2018-01-28T01:58:36.189Z,54.43
2018-01-28T01:58:36.790Z,54.14
2018-01-28T01:59:31.270Z,54.71
2018-01-28T01:59:31.866Z,54.71
2018-01-28T01:59:32.466Z,54.90
2018-01-28T01:59:33.066Z,54.80
2018-01-28T01:59:33.665Z,54.61
2018-01-28T01:59:34.266Z,54.61
2018-01-28T01:59:34.865Z,54.90
2018-01-28T01:59:35.465Z,54.71
2018-01-28T02:00:29.945Z,56.23
2018-01-28T02:00:30.542Z,56.23
2018-01-28T02:00:31.141Z,56.23
2018-01-28T02:00:31.740Z,56.16
2018-01-28T02:00:32.341Z,56.35
2018-01-28T02:00:32.941Z,56.13
2018-01-28T02:00:33.540Z,56.23
2018-01-28T02:00:34.140Z,56.23
2018-01-28T02:01:28.655Z,56.23
2018-01-28T02:01:29.217Z,56.45
2018-01-28T02:01:29.817Z,56.32
2018-01-28T02:01:30.416Z,55.85
2018-01-28T02:01:31.015Z,56.23
2018-01-28T02:01:31.617Z,56.26
2018-01-28T02:01:32.217Z,56.42
2018-01-28T02:01:32.815Z,56.23
2018-01-28T02:02:27.297Z,56.70
2018-01-28T02:02:27.893Z,56.54
2018-01-28T02:02:28.493Z,56.23
2018-01-28T02:02:29.100Z,56.73
2018-01-28T02:02:29.692Z,56.70
2018-01-28T02:02:30.291Z,56.54
2018-01-28T02:02:30.892Z,56.61
2018-01-28T02:02:31.493Z,56.51
2018-01-28T02:03:25.971Z,56.89
2018-01-28T02:03:26.568Z,56.83
2018-01-28T02:03:27.171Z,56.73
2018-01-28T02:03:27.768Z,56.80
2018-01-28T02:03:28.368Z,57.11
2018-01-28T02:03:28.982Z,57.11
2018-01-28T02:03:29.567Z,56.99
2018-01-28T02:03:30.173Z,57.18
2018-01-28T02:04:24.650Z,58.03
2018-01-28T02:04:25.245Z,57.94
2018-01-28T02:04:25.845Z,57.87
2018-01-28T02:04:26.443Z,58.22
2018-01-28T02:04:27.045Z,57.97
2018-01-28T02:04:27.644Z,57.94
2018-01-28T02:04:28.244Z,58.13
2018-01-28T02:04:28.843Z,57.94
2018-01-28T02:05:22.299Z,58.73
2018-01-28T02:05:22.897Z,58.80
2018-01-28T02:05:23.498Z,58.80
2018-01-28T02:05:24.102Z,58.70
2018-01-28T02:05:24.697Z,58.70
2018-01-28T02:05:25.295Z,58.89
2018-01-28T02:05:25.896Z,58.92
2018-01-28T02:05:26.497Z,59.17
2018-01-28T02:06:19.950Z,59.36
2018-01-28T02:06:20.549Z,59.27
2018-01-28T02:06:21.150Z,59.68
2018-01-28T02:06:21.748Z,59.27
2018-01-28T02:06:22.348Z,59.27
2018-01-28T02:06:22.948Z,59.49
2018-01-28T02:06:23.547Z,59.20
2018-01-28T02:06:24.147Z,59.39
2018-01-28T02:07:17.636Z,59.49
2018-01-28T02:07:18.202Z,59.49
2018-01-28T02:07:18.800Z,59.49
2018-01-28T02:07:19.398Z,59.49
2018-01-28T02:07:19.997Z,59.49
2018-01-28T02:07:20.599Z,59.39
2018-01-28T02:07:21.197Z,59.49
2018-01-28T02:07:21.802Z,59.49
2018-01-28T02:08:15.253Z,59.49
2018-01-28T02:08:15.852Z,59.49
2018-01-28T02:08:16.455Z,59.39
2018-01-28T02:08:17.054Z,59.58
2018-01-28T02:08:17.650Z,59.49
2018-01-28T02:08:18.250Z,59.39
2018-01-28T02:08:18.851Z,59.49
2018-01-28T02:08:19.451Z,59.58
2018-01-28T02:09:12.906Z,60.16
2018-01-28T02:09:13.503Z,60.35
2018-01-28T02:09:14.102Z,60.44
2018-01-28T02:09:14.702Z,60.35
2018-01-28T02:09:15.302Z,60.25
2018-01-28T02:09:15.902Z,60.16
2018-01-28T02:09:16.502Z,60.44
2018-01-28T02:09:17.102Z,60.25
2018-01-28T02:10:23.261Z,61.10
2018-01-28T02:10:23.851Z,60.72
2018-01-28T02:10:24.452Z,60.91
2018-01-28T02:10:25.052Z,61.01
2018-01-28T02:10:25.651Z,61.01
2018-01-28T02:10:26.270Z,61.01
2018-01-28T02:10:26.851Z,61.01
2018-01-28T02:10:27.451Z,61.01
2018-01-28T02:11:20.908Z,61.77
2018-01-28T02:11:21.505Z,61.68
2018-01-28T02:11:22.111Z,61.87
2018-01-28T02:11:22.706Z,61.96
2018-01-28T02:11:23.304Z,61.87
2018-01-28T02:11:23.905Z,62.15
2018-01-28T02:11:24.504Z,62.34
2018-01-28T02:11:25.103Z,62.53
2018-01-28T02:12:19.613Z,62.43
2018-01-28T02:12:20.180Z,62.24
2018-01-28T02:12:20.784Z,62.34
2018-01-28T02:12:21.379Z,62.24
2018-01-28T02:12:21.978Z,62.15
2018-01-28T02:12:22.582Z,62.43
2018-01-28T02:12:23.179Z,62.24
2018-01-28T02:12:23.780Z,62.34
2018-01-28T02:13:18.259Z,62.43
2018-01-28T02:13:18.853Z,62.53
2018-01-28T02:13:19.454Z,62.53
2018-01-28T02:13:20.054Z,62.53
2018-01-28T02:13:20.653Z,62.62
2018-01-28T02:13:21.255Z,62.53
2018-01-28T02:13:21.854Z,62.43
2018-01-28T02:13:22.452Z,62.62
2018-01-28T02:14:15.910Z,62.53
2018-01-28T02:14:16.511Z,61.87
2018-01-28T02:14:17.106Z,61.96
2018-01-28T02:14:17.706Z,61.87
2018-01-28T02:14:18.306Z,62.05
2018-01-28T02:14:18.911Z,62.05
2018-01-28T02:14:19.506Z,61.87
2018-01-28T02:14:20.107Z,61.87
2018-01-28T02:15:15.102Z,61.68
2018-01-28T02:15:15.694Z,61.96
2018-01-28T02:15:16.309Z,61.96
2018-01-28T02:15:16.895Z,61.77
2018-01-28T02:15:17.493Z,61.96
2018-01-28T02:15:18.095Z,61.96
2018-01-28T02:15:18.693Z,61.68
2018-01-28T02:16:12.239Z,61.87
2018-01-28T02:16:12.836Z,61.87
2018-01-28T02:16:13.437Z,61.87
2018-01-28T02:16:14.037Z,61.87
2018-01-28T02:16:14.634Z,61.87
2018-01-28T02:16:15.235Z,61.77
2018-01-28T02:16:15.835Z,61.87
2018-01-28T02:16:16.433Z,61.77
2018-01-28T02:17:09.893Z,61.87
2018-01-28T02:17:10.487Z,61.87
2018-01-28T02:17:11.089Z,61.39
2018-01-28T02:17:11.691Z,61.87
2018-01-28T02:17:12.286Z,61.87
2018-01-28T02:17:12.886Z,61.87
2018-01-28T02:17:13.486Z,61.39
2018-01-28T02:17:14.087Z,61.58
2018-01-28T02:18:07.568Z,61.87
2018-01-28T02:18:08.153Z,61.58
2018-01-28T02:18:08.743Z,61.58
2018-01-28T02:18:09.366Z,61.58
2018-01-28T02:18:09.939Z,61.87
2018-01-28T02:18:10.582Z,61.87
2018-01-28T02:18:11.163Z,61.39
2018-01-28T02:18:11.741Z,62.05
2018-01-28T02:19:05.194Z,61.39
2018-01-28T02:19:05.790Z,61.87
2018-01-28T02:19:06.394Z,61.77
2018-01-28T02:19:06.989Z,61.87
2018-01-28T02:19:07.589Z,61.87
2018-01-28T02:19:08.187Z,61.87
2018-01-28T02:19:08.790Z,61.39
2018-01-28T02:19:09.389Z,61.96
2018-01-28T02:20:03.874Z,62.53
2018-01-28T02:20:04.465Z,62.43
2018-01-28T02:20:05.064Z,62.43
2018-01-28T02:20:05.665Z,62.53
2018-01-28T02:20:06.265Z,62.43
2018-01-28T02:20:06.865Z,62.43
2018-01-28T02:20:07.464Z,62.53
2018-01-28T02:20:08.063Z,62.43
2018-01-28T02:21:01.523Z,61.87
2018-01-28T02:21:02.117Z,61.68
2018-01-28T02:21:02.717Z,61.96
2018-01-28T02:21:03.318Z,61.96
2018-01-28T02:21:03.917Z,61.87
2018-01-28T02:21:04.516Z,61.87
2018-01-28T02:21:05.117Z,61.96
2018-01-28T02:21:05.716Z,61.77
2018-01-28T02:21:59.172Z,60.82
2018-01-28T02:21:59.768Z,60.72
2018-01-28T02:22:00.379Z,61.10
2018-01-28T02:22:00.968Z,60.82
2018-01-28T02:22:01.571Z,61.10
2018-01-28T02:22:02.168Z,60.82
2018-01-28T02:22:02.769Z,60.82
2018-01-28T02:22:03.367Z,61.10
2018-01-28T02:22:56.828Z,61.39
2018-01-28T02:22:57.420Z,61.39
2018-01-28T02:22:58.023Z,61.58
2018-01-28T02:22:58.619Z,61.48
2018-01-28T02:22:59.218Z,61.39
2018-01-28T02:22:59.820Z,61.48
2018-01-28T02:23:00.420Z,61.39
2018-01-28T02:23:01.019Z,61.58
2018-01-28T02:23:55.525Z,61.01
2018-01-28T02:23:56.096Z,61.01
2018-01-28T02:23:56.695Z,60.91
2018-01-28T02:23:57.295Z,60.91
2018-01-28T02:23:57.895Z,61.01
2018-01-28T02:23:58.494Z,60.82
2018-01-28T02:23:59.095Z,60.91
2018-01-28T02:23:59.696Z,60.53
2018-01-28T02:24:54.175Z,60.35
2018-01-28T02:24:54.771Z,60.25
2018-01-28T02:24:55.372Z,60.16
2018-01-28T02:24:55.970Z,60.16
2018-01-28T02:24:56.570Z,59.96
2018-01-28T02:24:57.171Z,60.25
2018-01-28T02:24:57.787Z,59.96
2018-01-28T02:24:58.368Z,60.35
2018-01-28T02:25:51.827Z,59.87
2018-01-28T02:25:52.423Z,59.68
2018-01-28T02:25:53.027Z,59.58
2018-01-28T02:25:53.623Z,59.58
2018-01-28T02:25:54.222Z,59.49
2018-01-28T02:25:54.822Z,59.77
2018-01-28T02:25:55.422Z,59.68
2018-01-28T02:25:56.023Z,59.68
2018-01-28T02:26:49.484Z,59.20
2018-01-28T02:26:50.075Z,59.68
2018-01-28T02:26:50.678Z,59.39
2018-01-28T02:26:51.275Z,59.68
2018-01-28T02:26:51.874Z,59.01
2018-01-28T02:26:52.474Z,59.30
2018-01-28T02:26:53.073Z,59.39
2018-01-28T02:26:53.673Z,59.49
2018-01-28T02:27:48.159Z,59.30
2018-01-28T02:27:48.752Z,59.20
2018-01-28T02:27:49.353Z,59.11
2018-01-28T02:27:49.951Z,59.30
2018-01-28T02:27:50.550Z,59.30
2018-01-28T02:27:51.151Z,59.20
2018-01-28T02:27:51.753Z,59.20
2018-01-28T02:27:52.351Z,59.01
2018-01-28T02:28:45.839Z,59.20
2018-01-28T02:28:46.403Z,59.20
2018-01-28T02:28:47.004Z,59.20
2018-01-28T02:28:47.602Z,59.20
2018-01-28T02:28:48.202Z,59.20
2018-01-28T02:28:48.803Z,59.20
2018-01-28T02:28:49.401Z,59.11
2018-01-28T02:28:50.001Z,59.11
2018-01-28T02:29:43.458Z,58.54
2018-01-28T02:29:44.054Z,58.73
2018-01-28T02:29:44.656Z,58.63
2018-01-28T02:29:45.253Z,58.44
2018-01-28T02:29:45.853Z,58.63
2018-01-28T02:29:46.453Z,58.63
2018-01-28T02:29:47.052Z,58.35
2018-01-28T02:29:47.653Z,58.25
2018-01-28T02:30:42.132Z,58.44
2018-01-28T02:30:42.729Z,58.44
2018-01-28T02:30:43.329Z,58.44
2018-01-28T02:30:43.928Z,58.44
2018-01-28T02:30:44.532Z,58.25
2018-01-28T02:30:45.128Z,58.35
2018-01-28T02:30:45.727Z,58.44
2018-01-28T02:30:46.339Z,58.63
2018-01-28T02:31:40.813Z,58.06
2018-01-28T02:31:41.405Z,58.06
2018-01-28T02:31:42.004Z,58.06
2018-01-28T02:31:42.605Z,58.06
2018-01-28T02:31:43.204Z,58.06
2018-01-28T02:31:43.804Z,58.06
2018-01-28T02:31:44.403Z,58.25
2018-01-28T02:31:45.004Z,58.06
2018-01-28T02:32:39.488Z,57.78
2018-01-28T02:32:40.081Z,57.40
2018-01-28T02:32:40.681Z,57.78
2018-01-28T02:32:41.280Z,57.68
2018-01-28T02:32:41.886Z,57.59
2018-01-28T02:32:42.479Z,57.68
2018-01-28T02:32:43.079Z,57.97
2018-01-28T02:32:43.681Z,57.68
2018-01-28T02:33:38.160Z,57.59
2018-01-28T02:33:38.757Z,57.68
2018-01-28T02:33:39.355Z,57.78
2018-01-28T02:33:39.958Z,57.59
2018-01-28T02:33:40.555Z,57.68
2018-01-28T02:33:41.155Z,57.59
2018-01-28T02:33:41.754Z,57.68
2018-01-28T02:33:42.355Z,57.78
2018-01-28T02:52:56.805Z,49.70
2018-01-28T02:52:57.311Z,49.98
2018-01-28T02:52:57.910Z,49.89
2018-01-28T02:52:58.510Z,49.70
2018-01-28T02:52:59.110Z,49.70
2018-01-28T02:53:53.550Z,49.41
2018-01-28T02:53:54.147Z,49.13
2018-01-28T02:53:54.745Z,49.13
2018-01-28T02:53:55.346Z,49.32
2018-01-28T02:53:55.946Z,49.13
2018-01-28T02:53:56.544Z,49.32
2018-01-28T02:53:57.145Z,49.13
2018-01-28T02:53:57.744Z,49.22
2018-01-28T02:54:52.739Z,49.13
2018-01-28T02:54:53.334Z,49.04
2018-01-28T02:54:53.934Z,49.04
2018-01-28T02:54:54.533Z,49.04
2018-01-28T02:54:55.134Z,49.04
2018-01-28T02:54:55.733Z,48.94
2018-01-28T02:54:56.333Z,48.85
2018-01-28T02:55:51.345Z,48.46
2018-01-28T02:55:51.908Z,48.37
2018-01-28T02:55:52.510Z,48.37
2018-01-28T02:55:53.109Z,48.46
2018-01-28T02:55:53.708Z,48.46
2018-01-28T02:55:54.320Z,48.37
2018-01-28T02:56:49.785Z,47.71
2018-01-28T02:56:50.382Z,48.08
2018-01-28T02:56:50.980Z,47.71
2018-01-28T02:56:51.579Z,47.89
2018-01-28T02:56:52.180Z,47.61
2018-01-28T02:56:52.780Z,47.80
2018-01-28T02:57:46.823Z,47.13
2018-01-28T02:57:47.421Z,47.04
2018-01-28T02:57:48.031Z,47.13
2018-01-28T02:57:48.619Z,46.94
2018-01-28T02:57:49.220Z,46.94
2018-01-28T02:57:49.818Z,47.04
2018-01-28T02:57:50.419Z,46.94
2018-01-28T02:57:51.018Z,47.04
2018-01-28T02:58:46.010Z,46.56
2018-01-28T02:58:46.610Z,46.85
2018-01-28T02:58:47.211Z,46.56
2018-01-28T02:58:47.806Z,46.75
2018-01-28T02:58:48.406Z,46.75
2018-01-28T02:58:49.007Z,46.75
2018-01-28T02:58:49.605Z,46.75
2018-01-28T02:59:43.047Z,46.56
2018-01-28T02:59:43.645Z,46.56
2018-01-28T02:59:44.259Z,46.56
2018-01-28T02:59:44.842Z,46.47
2018-01-28T02:59:45.442Z,46.66
2018-01-28T02:59:46.042Z,46.56
2018-01-28T02:59:46.641Z,46.66
2018-01-28T02:59:47.241Z,46.56
2018-01-28T03:00:40.699Z,46.28
2018-01-28T03:00:41.296Z,46.37
2018-01-28T03:00:41.894Z,46.37
2018-01-28T03:00:42.495Z,46.19
2018-01-28T03:00:43.095Z,46.37
2018-01-28T03:00:43.695Z,46.28
2018-01-28T03:00:44.293Z,46.37
2018-01-28T03:00:44.896Z,46.47
2018-01-28T03:01:38.895Z,46.00
2018-01-28T03:01:39.462Z,45.90
2018-01-28T03:01:40.057Z,46.00
2018-01-28T03:01:40.661Z,46.00
2018-01-28T03:01:41.260Z,46.00
2018-01-28T03:01:41.862Z,45.90
2018-01-28T03:01:42.459Z,45.90
2018-01-28T03:02:36.923Z,46.09
2018-01-28T03:02:37.518Z,46.19
2018-01-28T03:02:38.118Z,46.28
2018-01-28T03:02:38.717Z,46.19
2018-01-28T03:02:39.328Z,46.28
2018-01-28T03:02:39.919Z,46.28
2018-01-28T03:02:40.518Z,46.19
2018-01-28T03:02:41.117Z,46.19
2018-01-28T03:03:35.088Z,45.52
2018-01-28T03:03:35.682Z,45.80
2018-01-28T03:03:36.287Z,45.80
2018-01-28T03:03:36.882Z,45.61
2018-01-28T03:03:37.481Z,45.71
2018-01-28T03:03:38.081Z,45.71
2018-01-28T03:03:38.684Z,45.61
2018-01-28T03:04:33.148Z,45.23
2018-01-28T03:04:33.744Z,45.23
2018-01-28T03:04:34.343Z,45.23
2018-01-28T03:04:34.944Z,45.14
2018-01-28T03:04:35.543Z,45.61
2018-01-28T03:04:36.143Z,45.61
2018-01-28T03:04:36.743Z,45.14
2018-01-28T03:04:37.350Z,45.33
2018-01-28T03:05:30.801Z,45.23
2018-01-28T03:05:31.399Z,45.61
2018-01-28T03:05:32.000Z,45.33
2018-01-28T03:05:32.597Z,45.52
2018-01-28T03:05:33.196Z,45.52
2018-01-28T03:05:33.797Z,45.61
2018-01-28T03:05:34.397Z,45.14
2018-01-28T03:05:34.997Z,45.33
2018-01-28T03:06:28.454Z,45.42
2018-01-28T03:06:29.049Z,45.52
2018-01-28T03:06:29.649Z,45.33
2018-01-28T03:06:30.248Z,45.42
2018-01-28T03:06:30.848Z,45.42
2018-01-28T03:06:31.448Z,45.42
2018-01-28T03:06:32.047Z,45.52
2018-01-28T03:06:32.648Z,45.52
2018-01-28T03:07:26.132Z,45.61
2018-01-28T03:07:26.702Z,45.61
2018-01-28T03:07:27.304Z,45.14
2018-01-28T03:07:27.947Z,45.14
2018-01-28T03:07:28.500Z,44.85
2018-01-28T03:07:29.100Z,45.52
2018-01-28T03:07:29.699Z,45.04
2018-01-28T03:07:30.301Z,45.61
2018-01-28T03:08:23.756Z,45.33
2018-01-28T03:08:24.352Z,45.52
2018-01-28T03:08:24.955Z,45.33
2018-01-28T03:08:25.555Z,45.33
2018-01-28T03:08:26.150Z,45.42
2018-01-28T03:08:26.754Z,45.33
2018-01-28T03:08:27.352Z,45.33
2018-01-28T03:08:27.951Z,45.42
2018-01-28T03:09:21.412Z,45.42
2018-01-28T03:09:22.006Z,45.42
2018-01-28T03:09:22.607Z,45.23
2018-01-28T03:09:23.204Z,45.23
2018-01-28T03:09:23.804Z,45.23
2018-01-28T03:09:24.404Z,45.23
2018-01-28T03:09:25.006Z,45.23
2018-01-28T03:09:25.604Z,45.04
2018-01-28T03:10:19.063Z,45.33
2018-01-28T03:10:19.656Z,45.33
2018-01-28T03:10:20.260Z,45.33
2018-01-28T03:10:20.855Z,45.33
2018-01-28T03:10:21.456Z,45.33
2018-01-28T03:10:22.056Z,45.33
2018-01-28T03:10:22.655Z,45.33
2018-01-28T03:10:23.255Z,45.33
2018-01-28T03:11:16.717Z,45.33
2018-01-28T03:11:17.345Z,45.52
2018-01-28T03:11:17.940Z,45.23
2018-01-28T03:11:18.535Z,45.42
2018-01-28T03:11:19.133Z,45.33
2018-01-28T03:11:19.747Z,45.52
2018-01-28T03:11:20.352Z,45.52
2018-01-28T03:11:20.949Z,45.52
2018-01-28T03:12:14.875Z,45.80
2018-01-28T03:12:15.471Z,46.09
2018-01-28T03:12:16.074Z,45.61
2018-01-28T03:12:16.670Z,45.71
2018-01-28T03:12:17.269Z,46.09
2018-01-28T03:12:17.870Z,46.00
2018-01-28T03:12:18.470Z,46.09
2018-01-28T03:13:12.968Z,46.28
2018-01-28T03:13:13.532Z,46.19
2018-01-28T03:13:14.131Z,46.47
2018-01-28T03:13:14.731Z,46.47
2018-01-28T03:13:15.336Z,46.28
2018-01-28T03:13:15.931Z,46.19
2018-01-28T03:13:16.530Z,46.19
2018-01-28T03:13:17.130Z,46.56
2018-01-28T03:14:10.588Z,46.37
2018-01-28T03:14:11.186Z,46.28
2018-01-28T03:14:11.786Z,46.28
2018-01-28T03:14:12.385Z,46.28
2018-01-28T03:14:13.000Z,46.37
2018-01-28T03:14:13.584Z,46.37
2018-01-28T03:14:14.185Z,46.20
2018-01-28T03:14:14.784Z,46.37
2018-01-28T03:15:08.239Z,46.47
2018-01-28T03:15:08.835Z,46.37
2018-01-28T03:15:09.440Z,46.56
2018-01-28T03:15:10.035Z,46.37
2018-01-28T03:15:10.635Z,46.56
2018-01-28T03:15:11.236Z,46.37
2018-01-28T03:15:11.836Z,46.37
2018-01-28T03:15:12.435Z,46.56
2018-01-28T03:16:06.915Z,46.28
2018-01-28T03:16:07.511Z,46.28
2018-01-28T03:16:08.114Z,46.28
2018-01-28T03:16:08.716Z,46.37
2018-01-28T03:16:09.310Z,46.28
2018-01-28T03:16:09.911Z,46.28
2018-01-28T03:16:10.509Z,46.28
2018-01-28T03:16:11.110Z,46.56
2018-01-28T03:17:04.566Z,46.19
2018-01-28T03:17:05.163Z,46.19
2018-01-28T03:17:05.765Z,46.37
2018-01-28T03:17:06.364Z,46.49
2018-01-28T03:17:06.963Z,46.49
2018-01-28T03:17:07.562Z,46.30
2018-01-28T03:17:08.162Z,46.56
2018-01-28T03:17:08.762Z,46.59
2018-01-28T03:18:03.240Z,46.59
2018-01-28T03:18:03.839Z,46.59
2018-01-28T03:18:04.441Z,46.49
2018-01-28T03:18:05.039Z,46.59
2018-01-28T03:18:05.637Z,46.56
2018-01-28T03:18:06.238Z,46.59
2018-01-28T03:18:06.838Z,46.56
2018-01-28T03:18:07.436Z,46.56
2018-01-28T03:19:01.951Z,46.19
2018-01-28T03:19:02.514Z,46.20
2018-01-28T03:19:03.117Z,46.40
2018-01-28T03:19:03.712Z,46.30
2018-01-28T03:19:04.313Z,46.28
2018-01-28T03:19:04.912Z,46.37
2018-01-28T03:19:05.519Z,46.30
2018-01-28T03:19:06.112Z,46.28
2018-01-28T03:19:59.569Z,46.28
2018-01-28T03:20:00.167Z,46.30
2018-01-28T03:20:00.768Z,46.30
2018-01-28T03:20:01.367Z,46.40
2018-01-28T03:20:01.965Z,46.40
2018-01-28T03:20:02.565Z,46.30
2018-01-28T03:20:03.166Z,46.28
2018-01-28T03:20:03.765Z,46.30
2018-01-28T03:20:58.757Z,46.68
2018-01-28T03:20:59.354Z,46.68
2018-01-28T03:20:59.958Z,46.68
2018-01-28T03:21:00.552Z,46.68
2018-01-28T03:21:01.153Z,46.68
2018-01-28T03:21:01.753Z,46.49
2018-01-28T03:21:02.351Z,46.68
2018-01-28T03:21:56.818Z,46.78
2018-01-28T03:21:57.414Z,46.88
2018-01-28T03:21:58.013Z,46.68
2018-01-28T03:21:58.613Z,46.78
2018-01-28T03:21:59.213Z,46.68
2018-01-28T03:21:59.813Z,46.97
2018-01-28T03:22:00.412Z,46.88
2018-01-28T03:22:01.014Z,46.97
2018-01-28T03:22:54.470Z,47.44
2018-01-28T03:22:55.067Z,47.34
2018-01-28T03:22:55.669Z,47.82
2018-01-28T03:22:56.267Z,47.44
2018-01-28T03:22:56.866Z,47.25
2018-01-28T03:22:57.466Z,47.25
2018-01-28T03:22:58.066Z,47.34
2018-01-28T03:22:58.666Z,47.34
2018-01-28T03:23:52.122Z,47.92
2018-01-28T03:23:52.718Z,47.73
2018-01-28T03:23:53.320Z,47.82
2018-01-28T03:23:53.918Z,47.63
2018-01-28T03:23:54.518Z,47.82
2018-01-28T03:23:55.118Z,47.73
2018-01-28T03:23:55.717Z,47.73
2018-01-28T03:23:56.317Z,47.82
2018-01-28T03:24:49.797Z,48.01
2018-01-28T03:24:50.370Z,48.01
2018-01-28T03:24:50.972Z,48.11
2018-01-28T03:24:51.572Z,48.11
2018-01-28T03:24:52.170Z,48.01
2018-01-28T03:24:52.769Z,48.01
2018-01-28T03:24:53.371Z,48.01
2018-01-28T03:24:53.972Z,47.92
2018-01-28T03:25:48.449Z,48.49
2018-01-28T03:25:49.046Z,48.30
2018-01-28T03:25:49.649Z,48.39
2018-01-28T03:25:50.245Z,48.49
2018-01-28T03:25:50.848Z,48.49
2018-01-28T03:25:51.445Z,48.21
2018-01-28T03:25:52.044Z,48.30
2018-01-28T03:25:52.644Z,48.30
2018-01-28T03:26:47.125Z,48.49
2018-01-28T03:26:47.721Z,48.49
2018-01-28T03:26:48.322Z,48.49
2018-01-28T03:26:48.919Z,48.39
2018-01-28T03:26:49.521Z,48.49
2018-01-28T03:26:50.121Z,48.30
2018-01-28T03:26:50.719Z,48.39
2018-01-28T03:26:51.322Z,48.30
2018-01-28T03:27:44.781Z,48.49
2018-01-28T03:27:45.373Z,48.39
2018-01-28T03:27:45.974Z,48.49
2018-01-28T03:27:46.573Z,48.49
2018-01-28T03:27:47.173Z,48.49
2018-01-28T03:27:47.772Z,48.58
2018-01-28T03:27:48.373Z,48.58
2018-01-28T03:27:48.973Z,48.39
2018-01-28T03:28:46.421Z,48.49
2018-01-28T03:28:47.017Z,48.49
2018-01-28T03:28:47.622Z,48.49
2018-01-28T03:29:42.155Z,49.15
2018-01-28T03:29:42.724Z,49.06
2018-01-28T03:29:43.333Z,48.96
2018-01-28T03:29:43.925Z,48.96
2018-01-28T03:29:44.524Z,48.96
2018-01-28T03:29:45.123Z,49.15
2018-01-28T03:29:45.723Z,49.06
2018-01-28T03:29:46.324Z,49.15
2018-01-28T03:30:40.803Z,48.96
2018-01-28T03:30:41.400Z,49.06
2018-01-28T03:30:42.004Z,48.87
2018-01-28T03:30:42.600Z,49.15
2018-01-28T03:30:43.200Z,48.96
2018-01-28T03:30:43.800Z,48.96
2018-01-28T03:30:44.400Z,49.06
2018-01-28T03:30:44.999Z,48.96
2018-01-28T03:31:41.013Z,49.35
2018-01-28T03:31:41.610Z,49.35
2018-01-28T03:31:42.216Z,49.15
2018-01-28T03:31:42.810Z,49.15
2018-01-28T03:31:43.412Z,49.44
2018-01-28T03:31:44.014Z,49.44
2018-01-28T03:32:38.568Z,49.35
2018-01-28T03:32:39.162Z,49.35
2018-01-28T03:32:39.762Z,49.73
2018-01-28T03:32:40.360Z,49.44
2018-01-28T03:32:40.961Z,49.63
2018-01-28T03:32:41.562Z,49.63
2018-01-28T03:32:42.159Z,49.63
2018-01-28T03:33:35.707Z,50.01
2018-01-28T03:33:36.302Z,49.91
2018-01-28T03:33:36.902Z,49.91
2018-01-28T03:33:37.501Z,50.10
2018-01-28T03:33:38.106Z,50.20